Time;durP1;ratioP1;P1;durP2;ratioP2;P2;SDS_P1;SDS_P2;PMS_P1;PMS_P2;Temp;Humidity;BMP_temperature;BMP_pressure;BME280_temperature;BME280_humidity;BME280_pressure;Samples;Min_cycle;Max_cycle;Signal;HPM_P1;HPM_P2
2021/12/03 00:02:21;;;;;;;11.10;6.50;;;0.80;99.90;;;;;;4983414;28;20096;-73
2021/12/03 00:04:47;;;;;;;8.90;6.20;;;0.80;99.90;;;;;;4984219;28;20042;-74
2021/12/03 00:07:12;;;;;;;11.88;6.60;;;0.80;99.90;;;;;;4984094;28;20045;-73
2021/12/03 00:09:38;;;;;;;10.35;6.20;;;0.80;99.90;;;;;;4982256;28;20125;-73
2021/12/03 00:12:04;;;;;;;10.02;6.30;;;0.80;99.90;;;;;;5002247;28;20587;-73
2021/12/03 00:14:31;;;;;;;8.35;6.80;;;0.80;99.90;;;;;;4986835;28;20035;-73
2021/12/03 00:16:57;;;;;;;9.07;5.60;;;0.70;99.90;;;;;;4984772;28;20050;-73
2021/12/03 00:19:22;;;;;;;9.05;6.38;;;0.70;99.90;;;;;;4986066;28;20055;-73
2021/12/03 00:21:48;;;;;;;8.23;5.85;;;0.80;99.90;;;;;;4983978;28;20042;-73
2021/12/03 00:24:14;;;;;;;12.05;6.10;;;0.80;99.90;;;;;;4983242;28;20038;-74
2021/12/03 00:26:39;;;;;;;9.60;5.55;;;0.70;99.90;;;;;;4983705;28;20046;-74
2021/12/03 00:29:05;;;;;;;14.38;5.70;;;0.70;99.90;;;;;;4981638;28;20046;-74
2021/12/03 00:31:31;;;;;;;10.68;6.30;;;0.70;99.90;;;;;;4986291;28;20042;-73
2021/12/03 00:33:56;;;;;;;9.43;5.70;;;0.70;99.90;;;;;;4985339;28;20619;-74
2021/12/03 00:36:23;;;;;;;9.13;6.28;;;0.70;99.90;;;;;;4985408;28;20058;-74
2021/12/03 00:38:53;;;;;;;9.27;6.87;;;0.70;99.90;;;;;;4985384;28;20457;-74
2021/12/03 00:41:20;;;;;;;9.77;5.65;;;0.70;99.90;;;;;;4981293;28;20685;-74
2021/12/03 00:43:48;;;;;;;9.30;6.22;;;0.70;99.90;;;;;;4983168;28;20058;-74
2021/12/03 00:46:17;;;;;;;9.48;6.32;;;0.70;99.90;;;;;;4986471;28;20050;-74
2021/12/03 00:48:45;;;;;;;11.52;6.10;;;0.80;99.90;;;;;;4984190;28;20070;-74
2021/12/03 00:51:11;;;;;;;;;;;0.80;99.90;;;;;;4984799;28;20088;-74
2021/12/03 00:53:38;;;;;;;10.02;5.80;;;0.80;99.90;;;;;;4989799;28;20357;-74
2021/12/03 00:56:05;;;;;;;8.68;6.35;;;0.80;99.90;;;;;;4987724;28;20046;-74
2021/12/03 00:58:30;;;;;;;9.90;6.50;;;0.80;99.90;;;;;;4988966;28;20493;-73
2021/12/03 01:00:56;;;;;;;9.75;6.55;;;0.90;99.90;;;;;;4982237;28;20045;-74
2021/12/03 01:03:23;;;;;;;10.05;6.88;;;0.90;99.90;;;;;;4989393;28;20641;-74
2021/12/03 01:05:48;;;;;;;13.93;7.33;;;1.00;99.90;;;;;;4949715;28;1046532;-74
2021/12/03 01:08:14;;;;;;;10.45;6.25;;;0.90;99.90;;;;;;4989164;28;20046;-74
2021/12/03 01:10:40;;;;;;;11.63;7.13;;;0.90;99.90;;;;;;4988480;28;20093;-74
2021/12/03 01:13:06;;;;;;;11.98;6.82;;;1.00;99.90;;;;;;4987797;28;20117;-74
2021/12/03 01:15:35;;;;;;;9.48;6.55;;;0.90;99.90;;;;;;4990108;28;20040;-74
2021/12/03 01:18:02;;;;;;;10.80;7.03;;;1.00;99.90;;;;;;4987065;28;20046;-74
2021/12/03 01:20:27;;;;;;;10.55;6.82;;;1.00;99.90;;;;;;4988234;28;20047;-74
2021/12/03 01:22:54;;;;;;;11.02;6.80;;;1.00;99.90;;;;;;4986022;28;20093;-74
2021/12/03 01:25:21;;;;;;;11.77;7.13;;;1.00;99.90;;;;;;4989282;28;20670;-74
2021/12/03 01:27:48;;;;;;;10.13;6.28;;;1.00;99.90;;;;;;4986431;28;20046;-73
2021/12/03 01:30:16;;;;;;;11.20;6.90;;;1.10;99.90;;;;;;4988712;28;20069;-74
2021/12/03 01:32:43;;;;;;;9.13;6.85;;;1.10;99.90;;;;;;4981956;28;20034;-74
2021/12/03 01:35:09;;;;;;;10.77;8.40;;;1.00;99.90;;;;;;4988463;28;20121;-74
2021/12/03 01:37:35;;;;;;;12.82;8.45;;;1.10;99.90;;;;;;4988954;28;20038;-74
2021/12/03 01:40:01;;;;;;;10.98;8.95;;;1.10;99.90;;;;;;4989718;28;20042;-74
2021/12/03 01:42:27;;;;;;;13.80;10.15;;;1.10;99.90;;;;;;4988309;28;20042;-74
2021/12/03 01:44:52;;;;;;;15.48;10.57;;;1.10;99.90;;;;;;4982477;28;20109;-74
2021/12/03 01:47:18;;;;;;;12.25;9.93;;;1.00;99.90;;;;;;4977969;28;20504;-73
2021/12/03 01:49:45;;;;;;;13.50;10.48;;;1.10;99.90;;;;;;4984009;28;20030;-74
2021/12/03 01:52:10;;;;;;;12.70;10.85;;;1.00;99.90;;;;;;4983431;28;20074;-74
2021/12/03 01:54:36;;;;;;;13.07;10.90;;;1.10;99.90;;;;;;4988635;28;20136;-74
2021/12/03 01:57:02;;;;;;;15.40;12.52;;;1.10;99.90;;;;;;4977560;28;20042;-74
2021/12/03 01:59:27;;;;;;;16.27;12.35;;;1.10;99.90;;;;;;4988241;28;20124;-74
2021/12/03 02:01:53;;;;;;;18.23;13.48;;;1.10;99.90;;;;;;4980646;28;20053;-74
2021/12/03 02:04:19;;;;;;;17.02;12.48;;;1.10;99.90;;;;;;4987405;28;20042;-74
2021/12/03 02:06:44;;;;;;;15.20;13.27;;;1.10;99.90;;;;;;4983617;28;20049;-74
2021/12/03 02:09:10;;;;;;;15.20;13.70;;;1.10;99.90;;;;;;4981300;28;20034;-74
2021/12/03 02:11:36;;;;;;;15.70;14.00;;;1.10;99.90;;;;;;4973580;28;20131;-74
2021/12/03 02:14:02;;;;;;;17.02;14.45;;;1.10;99.90;;;;;;4986273;28;20047;-74
2021/12/03 02:16:28;;;;;;;18.45;15.50;;;1.10;99.90;;;;;;4984830;28;20049;-73
2021/12/03 02:18:54;;;;;;;21.63;16.73;;;1.10;99.90;;;;;;4986848;28;20484;-74
2021/12/03 02:21:20;;;;;;;19.50;16.85;;;1.10;99.90;;;;;;4988953;28;20046;-73
2021/12/03 02:23:47;;;;;;;18.38;16.48;;;1.20;99.90;;;;;;4986589;28;20058;-74
2021/12/03 02:26:14;;;;;;;18.90;16.52;;;1.20;99.90;;;;;;4988800;28;20501;-73
2021/12/03 02:28:43;;;;;;;19.27;16.85;;;1.20;99.90;;;;;;4980806;28;20049;-74
2021/12/03 02:31:09;;;;;;;20.13;17.95;;;1.20;99.90;;;;;;4987237;28;20080;-74
2021/12/03 02:33:36;;;;;;;19.35;17.25;;;1.20;99.90;;;;;;4987607;28;20061;-74
2021/12/03 02:36:02;;;;;;;20.77;18.45;;;1.20;99.90;;;;;;4986153;28;20105;-74
2021/12/03 02:38:28;;;;;;;21.25;19.13;;;1.20;99.90;;;;;;4979881;28;20074;-74
2021/12/03 02:40:55;;;;;;;20.35;18.25;;;1.20;99.90;;;;;;4973604;28;20100;-74
2021/12/03 02:43:22;;;;;;;22.23;19.73;;;1.20;99.90;;;;;;4983707;28;20058;-73
2021/12/03 02:45:50;;;;;;;21.33;19.05;;;1.20;99.90;;;;;;4986849;28;20153;-73
2021/12/03 02:48:17;;;;;;;22.58;19.25;;;1.30;99.90;;;;;;4989007;28;20054;-74
2021/12/03 02:50:42;;;;;;;21.63;19.33;;;1.30;99.90;;;;;;4985499;28;20392;-74
2021/12/03 02:53:08;;;;;;;21.63;18.63;;;1.30;99.90;;;;;;4987610;28;20577;-74
2021/12/03 02:55:34;;;;;;;19.58;17.63;;;1.20;99.90;;;;;;4986441;28;20048;-74
2021/12/03 02:58:01;;;;;;;21.25;19.10;;;1.30;99.90;;;;;;4984838;28;20038;-74
2021/12/03 03:00:27;;;;;;;20.08;18.00;;;1.20;99.90;;;;;;4984550;28;20429;-74
2021/12/03 03:02:54;;;;;;;20.02;17.65;;;1.30;99.90;;;;;;4983682;28;20177;-74
2021/12/03 03:05:22;;;;;;;19.58;17.58;;;1.20;99.90;;;;;;4985802;28;20050;-74
2021/12/03 03:07:48;;;;;;;20.33;18.33;;;1.30;99.90;;;;;;4986217;28;22223;-74
2021/12/03 03:10:18;;;;;;;20.33;18.17;;;1.30;99.90;;;;;;4979985;28;20553;-73
2021/12/03 03:12:44;;;;;;;20.38;17.90;;;1.30;99.90;;;;;;4985628;28;20584;-74
2021/12/03 03:15:11;;;;;;;20.20;17.67;;;1.30;99.90;;;;;;4983278;28;20030;-74
2021/12/03 03:17:38;;;;;;;20.42;18.23;;;1.30;99.90;;;;;;4985648;28;20145;-74
2021/12/03 03:20:05;;;;;;;20.65;18.13;;;1.30;99.90;;;;;;4984121;28;20049;-73
2021/12/03 03:22:32;;;;;;;21.27;19.02;;;1.30;99.90;;;;;;4984293;28;20051;-74
2021/12/03 03:25:01;;;;;;;19.75;17.65;;;1.30;99.90;;;;;;4986809;28;20061;-74
2021/12/03 03:27:30;;;;;;;19.10;17.10;;;1.30;99.90;;;;;;4982664;28;20057;-74
2021/12/03 03:29:56;;;;;;;19.15;16.00;;;1.30;99.90;;;;;;4984357;28;20046;-73
2021/12/03 03:32:21;;;;;;;18.27;16.50;;;1.30;99.90;;;;;;4984840;28;20049;-74
2021/12/03 03:34:47;;;;;;;19.15;17.08;;;1.30;99.90;;;;;;4984425;28;20050;-74
2021/12/03 03:37:14;;;;;;;18.98;17.13;;;1.30;99.90;;;;;;4986780;28;20050;-74
2021/12/03 03:39:40;;;;;;;18.77;16.77;;;1.30;99.90;;;;;;4983785;28;20524;-73
2021/12/03 03:42:07;;;;;;;19.45;16.83;;;1.30;99.90;;;;;;4985606;28;20054;-74
2021/12/03 03:44:33;;;;;;;19.05;17.20;;;1.30;99.90;;;;;;4986267;28;20045;-74
2021/12/03 03:47:01;;;;;;;18.13;15.95;;;1.30;99.90;;;;;;4984819;28;20571;-73
2021/12/03 03:49:28;;;;;;;20.42;16.63;;;1.30;99.90;;;;;;4983431;28;20074;-74
2021/12/03 03:51:55;;;;;;;19.92;17.38;;;1.30;99.90;;;;;;4983137;28;20435;-74
2021/12/03 03:54:20;;;;;;;20.42;18.33;;;1.30;99.90;;;;;;4986870;28;20169;-74
2021/12/03 03:56:47;;;;;;;20.02;17.15;;;1.30;99.90;;;;;;4984867;28;20133;-75
2021/12/03 03:59:16;;;;;;;19.30;17.25;;;1.30;99.90;;;;;;4983713;28;20433;-74
2021/12/03 04:01:42;;;;;;;21.08;17.92;;;1.30;99.90;;;;;;4983247;28;20057;-73
2021/12/03 04:04:08;;;;;;;19.65;17.67;;;1.30;99.90;;;;;;4986672;28;20046;-73
2021/12/03 04:06:34;;;;;;;22.30;19.13;;;1.30;99.90;;;;;;4983266;28;20069;-73
2021/12/03 04:08:59;;;;;;;20.48;18.30;;;1.30;99.90;;;;;;4978785;28;20050;-74
2021/12/03 04:11:25;;;;;;;19.63;17.63;;;1.30;99.90;;;;;;4976231;28;20054;-72
2021/12/03 04:13:51;;;;;;;19.80;17.67;;;1.30;99.90;;;;;;4986018;28;20046;-73
2021/12/03 04:16:17;;;;;;;20.23;18.02;;;1.30;99.90;;;;;;4982864;28;20038;-73
2021/12/03 04:18:43;;;;;;;20.88;18.67;;;1.30;99.90;;;;;;4984056;28;20549;-73
2021/12/03 04:21:09;;;;;;;21.15;19.15;;;1.30;99.90;;;;;;4988629;28;20046;-74
2021/12/03 04:23:34;;;;;;;21.88;19.80;;;1.30;99.90;;;;;;4990153;28;20440;-73
2021/12/03 04:26:00;;;;;;;19.90;17.95;;;1.30;99.90;;;;;;4989745;28;20050;-74
2021/12/03 04:28:26;;;;;;;22.38;20.08;;;1.40;99.90;;;;;;4990287;28;20541;-74
2021/12/03 04:30:52;;;;;;;22.25;20.10;;;1.40;99.90;;;;;;4987930;28;20121;-74
2021/12/03 04:33:18;;;;;;;22.20;20.05;;;1.40;99.90;;;;;;4990502;28;20054;-74
2021/12/03 04:35:44;;;;;;;24.58;22.08;;;1.40;99.90;;;;;;4988424;28;20065;-74
2021/12/03 04:38:10;;;;;;;22.88;20.58;;;1.40;99.90;;;;;;4989342;28;20049;-74
2021/12/03 04:40:37;;;;;;;22.90;20.42;;;1.40;99.90;;;;;;4988741;28;20042;-73
2021/12/03 04:43:04;;;;;;;22.70;20.52;;;1.40;99.90;;;;;;4987412;28;20042;-74
2021/12/03 04:45:30;;;;;;;21.97;19.77;;;1.40;99.90;;;;;;4986731;28;20050;-74
2021/12/03 04:47:58;;;;;;;22.75;20.08;;;1.40;99.90;;;;;;4988514;28;20088;-74
2021/12/03 04:50:26;;;;;;;22.55;19.88;;;1.40;99.90;;;;;;4990448;28;20043;-74
2021/12/03 04:52:53;;;;;;;24.50;21.77;;;1.40;99.90;;;;;;4987244;28;20137;-74
2021/12/03 04:55:20;;;;;;;23.20;20.58;;;1.40;99.90;;;;;;4989910;28;20636;-74
2021/12/03 04:57:46;;;;;;;23.35;20.92;;;1.40;99.90;;;;;;4987941;28;21880;-73
2021/12/03 05:00:21;;;;;;;23.08;20.77;;;1.40;99.90;;;;;;4990646;28;20038;-74
2021/12/03 05:02:47;;;;;;;26.65;23.35;;;1.40;99.90;;;;;;4987245;28;20093;-74
2021/12/03 05:05:12;;;;;;;24.85;22.20;;;1.40;99.90;;;;;;4988969;28;20058;-74
2021/12/03 05:10:06;;;;;;;27.48;23.00;;;1.40;99.90;;;;;;4988195;28;20042;-73
2021/12/03 05:12:34;;;;;;;26.45;23.63;;;1.40;99.90;;;;;;4987652;28;20419;-73
2021/12/03 05:15:00;;;;;;;26.85;23.95;;;1.40;99.90;;;;;;4989014;28;20050;-73
2021/12/03 05:17:26;;;;;;;25.15;22.70;;;1.50;99.90;;;;;;4989108;28;20520;-74
2021/12/03 05:19:51;;;;;;;27.00;23.13;;;1.40;99.90;;;;;;4988105;28;20039;-73
2021/12/03 05:22:18;;;;;;;26.20;23.55;;;1.50;99.90;;;;;;4982383;28;20101;-72
2021/12/03 05:24:47;;;;;;;27.00;24.20;;;1.50;99.90;;;;;;4987794;28;20038;-73
2021/12/03 05:27:15;;;;;;;25.65;22.77;;;1.40;99.90;;;;;;4987962;28;20050;-73
2021/12/03 05:29:43;;;;;;;29.67;25.33;;;1.50;99.90;;;;;;4987134;28;20564;-73
2021/12/03 05:32:09;;;;;;;27.38;24.50;;;1.40;99.90;;;;;;4988091;28;20053;-73
2021/12/03 05:34:35;;;;;;;29.80;26.77;;;1.40;99.90;;;;;;4988227;28;20651;-73
2021/12/03 05:37:01;;;;;;;28.98;25.73;;;1.40;99.90;;;;;;4987922;28;20473;-73
2021/12/03 05:39:27;;;;;;;31.08;27.40;;;1.40;99.90;;;;;;4985737;28;20139;-74
2021/12/03 05:41:53;;;;;;;29.88;26.98;;;1.40;99.90;;;;;;4986672;28;20194;-73
2021/12/03 05:44:19;;;;;;;34.72;29.27;;;1.40;99.90;;;;;;4986104;28;20042;-74
2021/12/03 05:46:45;;;;;;;30.50;27.23;;;1.40;99.90;;;;;;4986191;28;20545;-74
2021/12/03 05:49:11;;;;;;;31.13;27.77;;;1.40;99.90;;;;;;4987433;28;20092;-74
2021/12/03 05:51:37;;;;;;;33.10;29.55;;;1.50;99.90;;;;;;4986697;28;20093;-73
2021/12/03 05:54:03;;;;;;;31.10;27.65;;;1.50;99.90;;;;;;4986898;28;20050;-73
2021/12/03 05:56:29;;;;;;;35.20;31.60;;;1.50;99.90;;;;;;4987697;28;20056;-74
2021/12/03 05:58:55;;;;;;;33.10;29.70;;;1.50;99.90;;;;;;4986875;28;20146;-73
2021/12/03 06:01:21;;;;;;;33.47;29.90;;;1.50;99.90;;;;;;4985627;28;20129;-73
2021/12/03 06:03:47;;;;;;;35.75;31.95;;;1.50;99.90;;;;;;4987207;28;20046;-72
2021/12/03 06:06:14;;;;;;;34.72;31.20;;;1.50;99.90;;;;;;4983387;28;20137;-73
2021/12/03 06:08:40;;;;;;;36.05;32.22;;;1.50;99.90;;;;;;4976695;28;20030;-74
2021/12/03 06:11:06;;;;;;;36.95;33.15;;;1.50;99.90;;;;;;4978422;28;20039;-73
2021/12/03 06:13:32;;;;;;;37.67;33.67;;;1.50;99.90;;;;;;4987180;28;20041;-74
2021/12/03 06:15:58;;;;;;;36.58;32.58;;;1.50;99.90;;;;;;4987632;28;20054;-73
2021/12/03 06:18:23;;;;;;;39.83;35.50;;;1.50;99.90;;;;;;4989936;28;20066;-74
2021/12/03 06:20:49;;;;;;;37.03;33.15;;;1.50;99.90;;;;;;4986253;28;20061;-74
2021/12/03 06:23:15;;;;;;;37.08;33.22;;;1.50;99.90;;;;;;4986525;28;20049;-74
2021/12/03 06:25:40;;;;;;;37.88;33.63;;;1.50;99.90;;;;;;4986324;28;20141;-74
2021/12/03 06:28:07;;;;;;;38.08;33.72;;;1.50;99.90;;;;;;4987734;28;20053;-74
2021/12/03 06:30:33;;;;;;;37.60;32.77;;;1.50;99.90;;;;;;4978835;28;20053;-73
2021/12/03 06:32:58;;;;;;;38.38;34.22;;;1.50;99.90;;;;;;4983889;28;20050;-74
2021/12/03 06:35:24;;;;;;;40.05;33.97;;;1.50;99.90;;;;;;4988131;28;20414;-73
2021/12/03 06:37:51;;;;;;;41.67;34.63;;;1.50;99.90;;;;;;4987319;28;20089;-73
2021/12/03 06:40:20;;;;;;;37.53;33.63;;;1.50;99.90;;;;;;4982668;28;20047;-73
2021/12/03 06:42:46;;;;;;;40.92;34.60;;;1.50;99.90;;;;;;4999513;28;20388;-73
2021/12/03 06:45:13;;;;;;;39.00;34.00;;;1.50;99.90;;;;;;4985371;28;20512;-73
2021/12/03 06:47:39;;;;;;;39.23;34.93;;;1.50;99.90;;;;;;4982044;28;20061;-73
2021/12/03 06:50:08;;;;;;;37.63;33.40;;;1.60;99.90;;;;;;4985196;28;20305;-73
2021/12/03 06:52:35;;;;;;;39.05;33.67;;;1.50;99.90;;;;;;4984654;28;20070;-73
2021/12/03 06:55:04;;;;;;;39.40;34.95;;;1.60;99.90;;;;;;4986710;28;20058;-73
2021/12/03 06:57:29;;;;;;;38.88;34.45;;;1.60;99.90;;;;;;4984327;28;20046;-73
2021/12/03 06:59:55;;;;;;;38.30;32.60;;;1.60;99.90;;;;;;4984646;28;20049;-73
2021/12/03 07:02:21;;;;;;;42.08;35.92;;;1.60;99.90;;;;;;4983293;28;20050;-73
2021/12/03 07:04:46;;;;;;;43.65;36.42;;;1.60;99.90;;;;;;4984216;28;20084;-73
2021/12/03 07:07:12;;;;;;;46.28;35.35;;;1.60;99.90;;;;;;4984477;28;20065;-73
2021/12/03 07:09:38;;;;;;;45.28;36.35;;;1.70;99.90;;;;;;4986559;28;20405;-73
2021/12/03 07:12:04;;;;;;;43.67;35.10;;;1.70;99.90;;;;;;4981577;28;20669;-72
2021/12/03 07:14:30;;;;;;;42.28;36.15;;;1.70;99.90;;;;;;4983727;28;20042;-73
2021/12/03 07:16:57;;;;;;;44.80;37.88;;;1.70;99.90;;;;;;4981624;28;20602;-73
2021/12/03 07:19:23;;;;;;;47.20;37.05;;;1.70;99.90;;;;;;4981535;28;20046;-73
2021/12/03 07:21:49;;;;;;;45.40;38.65;;;1.70;99.90;;;;;;4984400;28;20049;-73
2021/12/03 07:24:15;;;;;;;46.60;37.75;;;1.70;99.90;;;;;;4980515;28;20453;-73
2021/12/03 07:26:41;;;;;;;49.05;39.47;;;1.70;99.90;;;;;;4984137;28;20046;-73
2021/12/03 07:29:06;;;;;;;44.97;37.95;;;1.70;99.90;;;;;;4985270;28;20054;-73
2021/12/03 07:31:32;;;;;;;45.30;38.45;;;1.70;99.90;;;;;;4981559;28;20052;-73
2021/12/03 07:33:58;;;;;;;44.97;38.22;;;1.70;99.90;;;;;;4982950;28;20046;-72
2021/12/03 07:36:24;;;;;;;52.33;39.95;;;1.80;99.90;;;;;;4983839;28;20046;-73
2021/12/03 07:38:49;;;;;;;47.13;37.95;;;1.80;99.90;;;;;;4982569;28;20597;-72
2021/12/03 07:41:15;;;;;;;47.35;39.30;;;1.80;99.90;;;;;;4984656;28;20050;-73
2021/12/03 07:43:41;;;;;;;48.05;39.22;;;1.80;99.90;;;;;;4978712;28;21053;-73
2021/12/03 07:46:06;;;;;;;51.33;39.80;;;1.90;99.90;;;;;;4976700;28;20118;-73
2021/12/03 07:48:32;;;;;;;48.30;40.05;;;1.90;99.90;;;;;;4987679;28;20057;-72
2021/12/03 07:50:58;;;;;;;54.67;42.17;;;1.90;99.90;;;;;;4983972;28;20066;-73
2021/12/03 07:53:25;;;;;;;52.20;39.90;;;1.90;99.90;;;;;;4982769;28;20084;-73
2021/12/03 07:55:51;;;;;;;52.63;41.63;;;1.90;99.90;;;;;;4988039;28;20050;-73
2021/12/03 07:58:18;;;;;;;50.10;39.78;;;2.00;99.90;;;;;;4989176;28;20200;-73
2021/12/03 08:00:45;;;;;;;53.25;41.53;;;2.00;99.90;;;;;;4987968;28;20113;-74
2021/12/03 08:03:12;;;;;;;60.45;42.60;;;2.00;99.90;;;;;;4988449;28;20047;-72
2021/12/03 08:05:38;;;;;;;53.78;42.28;;;2.00;99.90;;;;;;4972828;28;20051;-72
2021/12/03 08:08:04;;;;;;;61.17;43.42;;;2.00;99.90;;;;;;4984812;28;20034;-76
2021/12/03 08:10:30;;;;;;;66.97;45.67;;;2.00;99.90;;;;;;4988675;28;20096;-79
2021/12/03 08:12:56;;;;;;;63.72;45.75;;;2.00;99.90;;;;;;4989622;28;20046;-78
2021/12/03 08:15:21;;;;;;;75.38;48.38;;;2.00;99.90;;;;;;4987395;28;20100;-76
2021/12/03 08:17:49;;;;;;;69.68;47.92;;;2.00;99.90;;;;;;4987782;28;20142;-77
2021/12/03 08:20:15;;;;;;;77.55;49.55;;;2.00;99.90;;;;;;5000657;28;20120;-75
2021/12/03 08:22:42;;;;;;;80.17;48.73;;;2.00;99.90;;;;;;4989000;28;20058;-78
2021/12/03 08:25:08;;;;;;;79.60;49.83;;;2.10;99.90;;;;;;5005298;28;20461;-78
2021/12/03 08:27:34;;;;;;;82.97;48.93;;;2.10;99.90;;;;;;4990423;28;20093;-78
2021/12/03 08:30:00;;;;;;;79.50;48.80;;;2.10;99.90;;;;;;4988771;28;20488;-78
2021/12/03 08:32:26;;;;;;;84.70;48.15;;;2.00;99.90;;;;;;4984483;28;20464;-79
2021/12/03 08:34:52;;;;;;;80.18;47.47;;;2.10;99.90;;;;;;4987126;28;20041;-73
2021/12/03 08:37:18;;;;;;;83.10;49.38;;;2.10;99.90;;;;;;4990240;28;20405;-79
2021/12/03 08:39:43;;;;;;;82.15;48.03;;;2.10;99.90;;;;;;4988086;28;20114;-77
2021/12/03 08:42:11;;;;;;;89.72;50.20;;;2.20;99.90;;;;;;4989004;28;20112;-76
2021/12/03 08:44:37;;;;;;;91.45;50.33;;;2.20;99.90;;;;;;4989764;28;20042;-78
2021/12/03 08:47:05;;;;;;;85.55;50.30;;;2.20;99.90;;;;;;4988029;28;20066;-72
2021/12/03 08:49:34;;;;;;;;;;;2.20;99.90;;;;;;4986328;28;20039;-78
2021/12/03 08:57:31;;;;;;;88.22;49.63;;;2.30;99.90;;;;;;4987980;28;20129;-78
2021/12/03 09:00:00;;;;;;;89.40;50.30;;;2.40;99.90;;;;;;4987872;28;20588;-83
2021/12/03 09:02:25;;;;;;;86.53;49.72;;;2.40;99.90;;;;;;4986694;28;20042;-76
2021/12/03 09:04:52;;;;;;;91.43;51.55;;;2.40;99.90;;;;;;4988870;28;20453;-77
2021/12/03 09:07:17;;;;;;;91.20;50.20;;;2.50;99.90;;;;;;4989350;28;20046;-77
2021/12/03 09:09:43;;;;;;;86.53;49.00;;;2.50;99.90;;;;;;4985519;28;20496;-77
2021/12/03 09:12:10;;;;;;;80.00;47.20;;;2.50;99.90;;;;;;4989027;28;20055;-78
2021/12/03 09:17:40;;;;;;;85.00;47.50;;;2.60;99.90;;;;;;4988250;28;20558;-77
2021/12/03 09:20:27;;;;;;;84.03;46.10;;;2.60;99.90;;;;;;4986105;28;20494;-78
2021/12/03 09:22:44;;;;;;;80.90;46.42;;;2.60;99.90;;;;;;4984338;28;20047;-78
2021/12/03 09:25:14;;;;;;;82.75;45.22;;;2.70;99.90;;;;;;4973317;28;20101;-78
2021/12/03 09:27:40;;;;;;;79.25;45.38;;;2.70;99.90;;;;;;4984611;28;20108;-80
2021/12/03 09:30:08;;;;;;;78.00;45.80;;;2.70;99.90;;;;;;4988507;28;20046;-73
2021/12/03 09:32:34;;;;;;;75.50;44.25;;;2.80;99.90;;;;;;4987011;28;20469;-73
2021/12/03 09:35:02;;;;;;;81.85;46.92;;;2.80;99.90;;;;;;4986271;28;20434;-76
2021/12/03 09:37:28;;;;;;;74.25;42.60;;;2.80;99.90;;;;;;4989179;28;20457;-76
2021/12/03 09:39:55;;;;;;;77.13;42.70;;;2.90;99.90;;;;;;5000507;28;20068;-78
2021/12/03 09:42:21;;;;;;;71.88;41.55;;;2.90;99.90;;;;;;4982369;28;20085;-77
2021/12/03 09:44:52;;;;;;;71.60;40.92;;;2.90;99.90;;;;;;4978261;28;20074;-78
2021/12/03 09:47:19;;;;;;;69.60;42.45;;;2.90;99.90;;;;;;4983267;28;20050;-79
2021/12/03 09:49:47;;;;;;;69.60;40.00;;;3.00;99.90;;;;;;4980341;28;20046;-79
2021/12/03 09:52:22;;;;;;;59.67;36.67;;;2.90;99.90;;;;;;4987958;28;20057;-78
2021/12/03 09:54:50;;;;;;;60.80;36.05;;;3.00;99.90;;;;;;4986947;28;20039;-74
2021/12/03 10:00:13;;;;;;;58.58;35.42;;;3.00;99.90;;;;;;4982032;28;20581;-75
2021/12/03 10:09:54;;;;;;;52.55;31.67;;;3.00;99.90;;;;;;4983340;28;20054;-75
2021/12/03 10:11:52;;;;;;;53.80;29.60;;;3.00;99.90;;;;;;4978884;28;20046;-76
2021/12/03 10:14:41;;;;;;;46.70;28.90;;;3.10;99.90;;;;;;4982948;28;20130;-74
2021/12/03 10:22:45;;;;;;;43.10;27.30;;;3.10;99.90;;;;;;4998426;28;20103;-75
2021/12/03 10:28:20;;;;;;;40.60;25.20;;;3.10;99.90;;;;;;4988682;28;20050;-75
2021/12/03 10:49:18;;;;;;;30.77;19.30;;;3.30;99.90;;;;;;4987015;28;20518;-74
2021/12/03 10:51:53;;;;;;;30.15;18.80;;;3.30;99.90;;;;;;4983490;28;20486;-72
2021/12/03 10:54:45;;;;;;;35.35;18.17;;;3.30;99.90;;;;;;4986702;28;20065;-75
2021/12/03 11:36:12;;;;;;;24.25;10.82;;;3.50;99.90;;;;;;4982521;28;20047;-76
2021/12/03 12:33:38;;;;;;;16.88;8.93;;;3.50;99.90;;;;;;4985560;28;20383;-73
2021/12/03 12:36:29;;;;;;;20.63;9.98;;;3.50;99.90;;;;;;4981394;28;20055;-73
2021/12/03 12:42:17;;;;;;;21.15;10.10;;;3.40;99.90;;;;;;4978411;28;20486;-73
2021/12/03 14:00:38;;;;;;;22.42;10.35;;;4.00;99.90;;;;;;4986399;28;20340;-74
2021/12/03 14:41:09;;;;;;;20.92;9.57;;;3.90;99.90;;;;;;4979680;28;20430;-73
2021/12/03 14:43:44;;;;;;;;;;;3.90;99.90;;;;;;4987141;28;20050;-74
2021/12/03 14:49:27;;;;;;;20.15;11.00;;;3.90;99.90;;;;;;4962094;28;20038;-73
2021/12/03 14:57:07;;;;;;;19.25;10.35;;;3.90;99.90;;;;;;4985936;28;20538;-73
2021/12/03 14:59:35;;;;;;;24.05;11.50;;;4.00;99.90;;;;;;4987645;28;20082;-74
2021/12/03 15:08:00;;;;;;;24.92;12.45;;;4.00;99.90;;;;;;4921438;28;20051;-72
2021/12/03 15:13:29;;;;;;;20.50;10.80;;;4.00;99.90;;;;;;4981630;28;20050;-72
2021/12/03 15:18:57;;;;;;;18.75;9.60;;;4.00;99.90;;;;;;4987313;28;20094;-73
2021/12/03 15:21:50;;;;;;;16.98;10.15;;;4.00;99.90;;;;;;4987462;28;20042;-73
2021/12/03 15:32:34;;;;;;;17.73;10.00;;;4.10;99.90;;;;;;4986981;28;20058;-72
2021/12/03 16:04:22;;;;;;;11.88;9.07;;;4.20;99.90;;;;;;4969846;28;20069;-75
2021/12/03 16:10:19;;;;;;;15.05;9.63;;;4.20;99.90;;;;;;4983200;28;20449;-73
2021/12/03 16:12:36;;;;;;;13.98;9.55;;;4.20;99.90;;;;;;4978736;28;20056;-72
2021/12/03 16:25:37;;;;;;;12.23;9.60;;;4.20;99.90;;;;;;4989110;28;20422;-76
2021/12/03 16:52:16;;;;;;;13.48;11.70;;;4.20;99.90;;;;;;4981671;28;20054;-75
2021/12/03 16:54:46;;;;;;;13.77;12.38;;;4.20;99.90;;;;;;4978442;28;20044;-75
2021/12/03 16:57:13;;;;;;;15.48;13.00;;;4.20;99.90;;;;;;4984033;28;20060;-75
2021/12/03 16:59:42;;;;;;;;;;;4.20;99.90;;;;;;5004687;28;20104;-75
2021/12/03 17:02:14;;;;;;;15.30;12.68;;;4.20;99.90;;;;;;4984907;28;20353;-75
2021/12/03 17:14:54;;;;;;;14.73;13.18;;;4.20;99.90;;;;;;4991320;28;20561;-76
2021/12/03 17:30:28;;;;;;;16.13;14.65;;;4.20;99.90;;;;;;4989545;28;20168;-76
2021/12/03 17:49:36;;;;;;;18.05;16.30;;;4.30;99.90;;;;;;4984323;28;20162;-75
2021/12/03 18:00:05;;;;;;;20.92;18.92;;;4.40;99.90;;;;;;4987002;28;20054;-76
2021/12/03 18:58:03;;;;;;;27.92;25.02;;;4.40;99.90;;;;;;4988671;28;20054;-75
2021/12/03 19:00:37;;;;;;;27.38;24.60;;;4.40;99.90;;;;;;4988369;28;20068;-75
2021/12/03 19:06:01;;;;;;;27.58;24.77;;;4.40;99.90;;;;;;4955674;28;20046;-76
2021/12/03 19:11:18;;;;;;;28.88;25.92;;;4.40;99.90;;;;;;4988301;28;20058;-75
2021/12/03 19:13:44;;;;;;;26.80;24.17;;;4.40;99.90;;;;;;4988420;28;20039;-75
2021/12/03 19:16:11;;;;;;;28.33;25.52;;;4.40;99.90;;;;;;4986813;28;20488;-75
2021/12/03 19:18:38;;;;;;;;;;;4.40;99.90;;;;;;4986757;28;20988;-76
2021/12/03 19:21:09;;;;;;;27.35;24.75;;;4.40;99.90;;;;;;4984769;28;19921;-76
2021/12/03 19:23:34;;;;;;;27.35;24.58;;;4.40;99.90;;;;;;4987553;28;20112;-75
2021/12/03 19:26:00;;;;;;;27.75;24.92;;;4.50;99.90;;;;;;4986996;28;20560;-76
2021/12/03 19:28:26;;;;;;;27.58;24.88;;;4.50;99.90;;;;;;4986973;28;20142;-75
2021/12/03 19:30:55;;;;;;;27.02;24.33;;;4.50;99.90;;;;;;4987091;28;20412;-75
2021/12/03 19:33:21;;;;;;;26.15;23.55;;;4.50;99.90;;;;;;4983996;28;20453;-75
2021/12/03 19:35:46;;;;;;;26.52;23.92;;;4.50;99.90;;;;;;4984178;28;20077;-75
2021/12/03 19:38:15;;;;;;;26.45;23.88;;;4.50;99.90;;;;;;4984652;28;20089;-75
2021/12/03 19:40:50;;;;;;;27.65;24.75;;;4.50;99.90;;;;;;4985797;28;20047;-75
2021/12/03 19:43:17;;;;;;;27.10;24.60;;;4.50;99.90;;;;;;4985198;28;20125;-75
2021/12/03 19:45:47;;;;;;;27.77;24.98;;;4.50;99.90;;;;;;4978357;28;20061;-75
2021/12/03 19:48:14;;;;;;;27.15;24.55;;;4.50;99.90;;;;;;4982773;28;20134;-75
2021/12/03 19:50:43;;;;;;;27.08;24.25;;;4.50;99.90;;;;;;4988325;28;20610;-75
2021/12/03 19:55:39;;;;;;;28.20;25.40;;;4.50;99.90;;;;;;4992498;28;20077;-75
2021/12/03 19:58:05;;;;;;;27.05;24.33;;;4.60;99.90;;;;;;4988858;28;20104;-75
2021/12/03 20:00:31;;;;;;;28.20;25.40;;;4.50;99.90;;;;;;4991730;28;20031;-75
2021/12/03 20:02:57;;;;;;;28.92;26.02;;;4.50;99.90;;;;;;4991557;28;20077;-75
2021/12/03 20:05:23;;;;;;;29.40;26.38;;;4.50;99.90;;;;;;4988563;28;20050;-75
2021/12/03 20:07:50;;;;;;;28.52;25.48;;;4.50;99.90;;;;;;4990236;28;20324;-75
2021/12/03 20:10:19;;;;;;;31.02;27.77;;;4.50;99.90;;;;;;4990243;28;20042;-75
2021/12/03 20:12:49;;;;;;;28.92;25.85;;;4.50;99.90;;;;;;4993349;28;20046;-75
2021/12/03 20:15:29;;;;;;;31.63;27.63;;;4.50;99.90;;;;;;5002029;28;20444;-75
2021/12/03 20:18:08;;;;;;;29.48;26.35;;;4.50;99.90;;;;;;4990383;28;20104;-75
2021/12/03 20:20:34;;;;;;;28.60;25.63;;;4.50;99.90;;;;;;4989931;28;20054;-75
2021/12/03 20:28:27;;;;;;;29.17;26.00;;;4.50;99.90;;;;;;4987563;28;20500;-75
2021/12/03 20:31:00;;;;;;;29.92;26.60;;;4.50;99.90;;;;;;4990505;28;20038;-76
2021/12/03 20:38:35;;;;;;;28.42;25.42;;;4.50;99.90;;;;;;4990628;28;20046;-76